createdAt,value
2019-05-21T03:48:29.445Z,16.15
2019-05-21T03:51:01.822Z,14.68
2019-05-21T03:53:36.787Z,14.38
2019-05-21T03:56:08.976Z,14.55
2019-05-21T03:58:40.055Z,16.15
2019-05-21T04:01:11.186Z,14.93
2019-05-21T04:03:42.340Z,13.05
2019-05-21T04:06:13.596Z,14.58
2019-05-21T04:08:44.684Z,12.85
2019-05-21T04:11:15.856Z,13.62
2019-05-21T04:13:46.980Z,14.85
2019-05-21T04:16:28.498Z,13.90
2019-05-21T04:19:04.074Z,13.62
2019-05-21T04:21:35.233Z,13.58
2019-05-21T04:24:09.097Z,14.80
2019-05-21T04:26:39.222Z,12.75
2019-05-21T04:29:10.385Z,11.75
2019-05-21T04:31:41.483Z,16.17
2019-05-21T04:34:12.612Z,14.35
2019-05-21T04:36:43.787Z,15.83
2019-05-21T04:39:14.922Z,18.05
2019-05-21T04:41:46.077Z,13.18
2019-05-21T04:44:17.199Z,12.47
2019-05-21T04:46:48.347Z,24.37
2019-05-21T04:49:19.514Z,19.45
2019-05-21T04:51:50.602Z,29.95
2019-05-21T04:54:21.803Z,18.10
2019-05-21T04:56:53.036Z,14.63
2019-05-21T04:59:24.248Z,13.62
2019-05-21T05:01:55.395Z,40.63
2019-05-21T05:04:26.570Z,22.15
2019-05-21T05:06:57.762Z,34.38
2019-05-21T05:09:28.871Z,25.15
2019-05-21T05:12:01.098Z,20.57
2019-05-21T05:14:32.479Z,15.28
2019-05-21T05:17:03.621Z,12.82
2019-05-21T05:19:34.737Z,13.15
2019-05-21T05:22:05.875Z,13.30
2019-05-21T05:24:37.273Z,12.90
2019-05-21T05:27:08.439Z,13.48
2019-05-21T05:29:39.587Z,12.23
2019-05-21T05:32:10.735Z,13.70
2019-05-21T05:34:41.851Z,12.53
2019-05-21T05:37:12.992Z,9.63
2019-05-21T05:39:44.085Z,13.70
2019-05-21T05:42:15.269Z,10.65
2019-05-21T05:44:46.401Z,10.95
2019-05-21T05:47:17.653Z,10.65
2019-05-21T05:49:50.333Z,11.65
2019-05-21T05:52:21.472Z,10.65
2019-05-21T05:54:53.942Z,9.68
2019-05-21T05:57:25.197Z,9.58
2019-05-21T05:59:56.290Z,9.33
2019-05-21T06:02:27.386Z,8.60
2019-05-21T06:04:58.552Z,9.63
2019-05-21T06:07:29.688Z,10.32
2019-05-21T06:10:00.818Z,8.50
2019-05-21T06:12:31.968Z,10.65
2019-05-21T06:15:03.654Z,10.72
2019-05-21T06:17:35.394Z,8.33
2019-05-21T06:20:08.050Z,9.90
2019-05-21T06:22:39.184Z,10.43
2019-05-21T06:25:11.671Z,11.08
2019-05-21T06:27:42.773Z,9.48
2019-05-21T06:30:14.240Z,9.15
2019-05-21T06:32:45.377Z,7.55
2019-05-21T06:35:16.656Z,8.90
2019-05-21T06:37:47.850Z,7.37
2019-05-21T06:40:19.994Z,7.30
2019-05-21T06:42:51.091Z,7.80
2019-05-21T06:45:22.507Z,7.08
2019-05-21T06:47:53.581Z,8.65
2019-05-21T06:50:24.729Z,9.23
2019-05-21T06:52:55.918Z,8.78
2019-05-21T06:55:27.141Z,7.47
2019-05-21T06:57:58.268Z,7.62
2019-05-21T07:00:29.376Z,3.35
2019-05-21T07:03:00.528Z,4.30
2019-05-21T07:05:30.588Z,4.47
2019-05-21T07:08:01.379Z,5.58
2019-05-21T07:10:32.507Z,3.90
2019-05-21T07:13:03.776Z,5.75
2019-05-21T07:15:34.929Z,6.33
2019-05-21T07:18:07.125Z,4.85
2019-05-21T07:20:38.257Z,4.42
2019-05-21T07:23:09.383Z,7.03
2019-05-21T07:25:40.493Z,6.95
2019-05-21T07:28:11.671Z,4.35
2019-05-21T07:30:42.778Z,4.53
2019-05-21T07:33:15.060Z,5.87
2019-05-21T07:35:46.236Z,5.75
2019-05-21T07:38:17.317Z,7.55
2019-05-21T07:40:52.496Z,6.50
2019-05-21T07:43:23.629Z,6.37
2019-05-21T07:45:54.933Z,6.53
2019-05-21T07:48:26.065Z,6.03
2019-05-21T07:50:57.159Z,7.97
2019-05-21T07:53:28.387Z,5.65
2019-05-21T07:55:59.506Z,5.40
2019-05-21T07:58:30.663Z,7.40
2019-05-21T08:01:01.960Z,7.67
2019-05-21T08:03:33.998Z,9.68
2019-05-21T08:06:05.291Z,7.62
2019-05-21T08:08:36.445Z,8.28
2019-05-21T08:11:07.563Z,7.55
2019-05-21T08:13:38.753Z,6.35
2019-05-21T08:16:10.210Z,7.92
2019-05-21T08:18:42.285Z,7.72
2019-05-21T08:21:13.989Z,6.78
2019-05-21T08:23:45.334Z,7.72
2019-05-21T08:26:16.532Z,7.15
2019-05-21T08:28:49.382Z,7.25
2019-05-21T08:31:20.999Z,8.10
2019-05-21T08:33:53.308Z,9.50
2019-05-21T08:36:25.215Z,7.47
2019-05-21T08:38:56.899Z,7.90
2019-05-21T08:41:30.290Z,5.75
2019-05-21T08:44:04.268Z,10.08
2019-05-21T08:46:35.802Z,5.85
2019-05-21T08:49:11.037Z,8.68
2019-05-21T08:51:43.778Z,6.58
2019-05-21T08:54:17.401Z,6.72
2019-05-21T08:56:48.615Z,4.37
2019-05-21T08:59:19.743Z,5.20
2019-05-21T09:01:50.961Z,4.58
2019-05-21T09:04:22.186Z,4.80
2019-05-21T09:06:53.309Z,7.40
2019-05-21T09:09:24.426Z,5.10
2019-05-21T09:11:55.588Z,4.97
2019-05-21T09:14:26.731Z,5.83
2019-05-21T09:16:57.810Z,5.62
2019-05-21T09:19:28.975Z,3.65
2019-05-21T09:22:00.072Z,6.40
2019-05-21T09:24:31.407Z,5.22
2019-05-21T09:27:02.851Z,3.62
2019-05-21T09:29:34.044Z,4.55
2019-05-21T09:32:05.140Z,5.97
2019-05-21T09:34:48.102Z,8.90
2019-05-21T09:37:19.671Z,5.65
2019-05-21T09:39:44.518Z,5.50
2019-05-21T09:42:15.649Z,4.25
2019-05-21T09:44:46.767Z,4.53
2019-05-21T09:47:17.858Z,8.40
2019-05-21T09:49:48.987Z,7.85
2019-05-21T09:52:20.316Z,7.62
2019-05-21T09:54:51.458Z,6.10
2019-05-21T09:57:24.166Z,5.80
2019-05-21T10:00:04.370Z,4.72
2019-05-21T10:02:36.179Z,6.83
2019-05-21T10:05:07.607Z,5.58
2019-05-21T10:07:40.518Z,5.28
2019-05-21T10:10:11.928Z,6.03
2019-05-21T10:12:44.885Z,4.97
2019-05-21T10:15:16.299Z,7.10
2019-05-21T10:17:47.706Z,6.55
2019-05-21T10:20:19.137Z,7.92
2019-05-21T10:22:50.502Z,6.95
2019-05-21T10:25:38.145Z,7.83
2019-05-21T10:28:09.732Z,5.67
2019-05-21T10:30:40.853Z,6.97
2019-05-21T10:33:12.093Z,5.65
2019-05-21T10:35:43.162Z,4.85
2019-05-21T10:38:14.283Z,5.80
2019-05-21T10:40:46.462Z,6.60
2019-05-21T10:43:19.189Z,9.78
2019-05-21T10:45:53.474Z,7.50
2019-05-21T10:48:25.778Z,9.60
2019-05-21T10:50:59.709Z,8.28
2019-05-21T10:53:55.878Z,8.95
2019-05-21T10:56:49.678Z,8.05
2019-05-21T10:59:27.253Z,5.75
2019-05-21T11:02:15.443Z,6.87
2019-05-21T11:04:59.621Z,7.85
2019-05-21T11:07:32.989Z,5.37
2019-05-21T11:10:07.382Z,6.33
2019-05-21T11:12:42.296Z,8.00
2019-05-21T11:15:13.867Z,9.08
2019-05-21T11:17:58.938Z,8.10
2019-05-21T11:20:18.539Z,6.08
2019-05-21T11:22:49.706Z,6.00
2019-05-21T11:25:23.358Z,6.17
2019-05-21T11:27:54.827Z,4.55
2019-05-21T11:30:25.921Z,8.40
2019-05-21T11:32:58.459Z,8.13
2019-05-21T11:35:29.584Z,5.33
2019-05-21T11:38:00.699Z,8.30
2019-05-21T11:40:33.350Z,4.90
2019-05-21T11:43:05.689Z,6.22
2019-05-21T11:45:39.578Z,6.62
2019-05-21T11:48:11.456Z,7.50
2019-05-21T11:50:42.608Z,6.78
2019-05-21T11:53:14.861Z,3.20
2019-05-21T11:55:46.266Z,4.55
2019-05-21T11:58:19.623Z,6.55
2019-05-21T12:00:51.308Z,6.62
2019-05-21T12:03:22.410Z,5.60
2019-05-21T12:05:53.505Z,5.10
2019-05-21T12:08:24.778Z,5.55
2019-05-21T12:10:56.005Z,3.98
2019-05-21T12:13:27.115Z,6.80
2019-05-21T12:15:58.218Z,9.18
2019-05-21T12:18:29.357Z,5.25
2019-05-21T12:21:00.799Z,5.80
2019-05-21T12:23:33.222Z,6.25
2019-05-21T12:26:04.740Z,7.30
2019-05-21T12:28:35.886Z,11.50
2019-05-21T12:31:07.055Z,7.53
2019-05-21T12:33:38.147Z,7.97
2019-05-21T12:36:09.415Z,6.37
2019-05-21T12:38:40.705Z,8.80
2019-05-21T12:41:13.834Z,12.50
2019-05-21T12:43:46.148Z,9.98
2019-05-21T12:46:17.504Z,14.18
2019-05-21T12:48:50.227Z,10.23
2019-05-21T12:51:22.559Z,7.17
2019-05-21T12:53:53.812Z,8.00
2019-05-21T12:56:25.102Z,8.75
2019-05-21T12:59:00.685Z,6.97
2019-05-21T13:01:30.604Z,5.95
2019-05-21T13:04:01.959Z,8.05
2019-05-21T13:06:33.541Z,6.40
2019-05-21T13:09:08.075Z,6.95
2019-05-21T13:11:39.797Z,7.97
2019-05-21T13:14:16.087Z,6.35
2019-05-21T13:16:44.045Z,6.83
2019-05-21T13:19:16.543Z,5.53
2019-05-21T13:21:50.487Z,6.33
2019-05-21T13:24:26.318Z,8.43
2019-05-21T13:27:00.973Z,9.05
2019-05-21T13:29:34.801Z,9.18
2019-05-21T13:32:08.220Z,9.10
2019-05-21T13:34:42.439Z,12.20
2019-05-21T13:37:16.834Z,8.95
2019-05-21T13:39:50.694Z,10.25
2019-05-21T13:42:25.695Z,10.93
2019-05-21T13:44:59.422Z,7.37
2019-05-21T13:47:35.011Z,11.12
2019-05-21T13:50:09.839Z,12.58
2019-05-21T13:52:41.509Z,11.22
2019-05-21T13:55:14.527Z,10.35
2019-05-21T13:57:46.870Z,12.75
2019-05-21T14:00:22.089Z,11.93
2019-05-21T14:02:54.224Z,8.00
2019-05-21T14:05:27.594Z,9.58
2019-05-21T14:08:01.060Z,10.20
2019-05-21T14:10:34.203Z,10.58
2019-05-21T14:13:07.363Z,7.37
2019-05-21T14:15:39.781Z,7.37
2019-05-21T14:18:13.476Z,6.33
2019-05-21T14:20:45.850Z,10.43
2019-05-21T14:23:17.730Z,8.20
2019-05-21T14:25:50.583Z,12.10
2019-05-21T14:28:23.271Z,15.08
2019-05-21T14:30:58.177Z,11.43
2019-05-21T14:33:33.363Z,7.80
2019-05-21T14:36:07.629Z,12.73
2019-05-21T14:38:39.714Z,12.13
2019-05-21T14:41:12.284Z,8.40
2019-05-21T14:43:45.817Z,11.25
2019-05-21T14:46:19.750Z,7.97
2019-05-21T14:48:52.907Z,11.73
2019-05-21T14:51:25.928Z,10.45
2019-05-21T14:54:00.426Z,13.18
2019-05-21T14:56:33.377Z,7.25
2019-05-21T14:59:08.571Z,8.80
2019-05-21T15:01:46.119Z,9.43
2019-05-21T15:04:18.725Z,12.13
2019-05-21T15:06:50.999Z,10.25
2019-05-21T15:09:24.387Z,8.70
2019-05-21T15:11:58.056Z,7.20
2019-05-21T15:14:30.252Z,12.40
2019-05-21T15:17:02.432Z,8.98
2019-05-21T15:19:35.423Z,8.45
2019-05-21T15:22:08.485Z,11.30
2019-05-21T15:24:42.208Z,10.90
2019-05-21T15:27:13.992Z,7.62
2019-05-21T15:29:47.324Z,7.30
2019-05-21T15:32:21.914Z,11.55
2019-05-21T15:34:54.627Z,8.45
2019-05-21T15:37:27.533Z,7.28
2019-05-21T15:39:59.991Z,6.58
2019-05-21T15:42:32.370Z,7.53
2019-05-21T15:45:05.310Z,5.62
2019-05-21T15:47:38.045Z,7.83
2019-05-21T15:50:11.257Z,6.92
2019-05-21T15:52:44.374Z,9.15
2019-05-21T15:55:20.202Z,8.55
2019-05-21T15:57:56.888Z,8.45
2019-05-21T16:00:29.617Z,10.93
2019-05-21T16:03:01.180Z,5.60
2019-05-21T16:05:33.502Z,7.50
2019-05-21T16:08:05.952Z,7.35
2019-05-21T16:10:37.373Z,9.35
2019-05-21T16:13:10.338Z,6.85
2019-05-21T16:15:44.834Z,6.03
2019-05-21T16:18:18.924Z,6.55
2019-05-21T16:20:54.809Z,7.92
2019-05-21T16:23:28.293Z,8.00
2019-05-21T16:26:00.665Z,8.73
2019-05-21T16:28:34.215Z,8.20
2019-05-21T16:31:08.494Z,8.53
2019-05-21T16:33:41.273Z,7.10
2019-05-21T16:36:15.193Z,10.98
2019-05-21T16:38:47.440Z,9.13
2019-05-21T16:41:24.566Z,8.65
2019-05-21T16:43:56.964Z,9.23
2019-05-21T16:46:30.655Z,8.50
2019-05-21T16:49:04.613Z,7.55
2019-05-21T16:51:39.571Z,8.83
2019-05-21T16:54:12.768Z,8.28
2019-05-21T16:56:45.970Z,7.12
2019-05-21T16:59:19.910Z,15.00
2019-05-21T17:16:56.206Z,12.60
2019-05-21T17:19:31.969Z,8.03
2019-05-21T17:22:07.582Z,10.23
2019-05-21T17:24:41.692Z,10.68
2019-05-21T17:27:19.705Z,11.88
2019-05-21T17:29:55.719Z,10.55
2019-05-21T17:32:29.644Z,12.95
2019-05-21T17:35:04.132Z,14.03
2019-05-21T17:37:38.563Z,12.43
2019-05-21T17:40:13.587Z,10.05
2019-05-21T17:42:49.225Z,14.18
2019-05-21T17:45:23.667Z,12.78
2019-05-21T17:47:58.171Z,10.18
2019-05-21T17:50:30.370Z,11.05
